createdAt,value
2022-08-25T00:01:54.243Z,101586.31
2022-08-25T00:04:24.798Z,101602.66
2022-08-25T00:06:53.580Z,101577.50
2022-08-25T00:09:22.753Z,101557.22
2022-08-25T00:11:50.030Z,101606.03
2022-08-25T00:14:23.691Z,101564.38
2022-08-25T00:16:50.423Z,101580.63
2022-08-25T00:19:19.796Z,101611.75
2022-08-25T00:21:47.177Z,101574.25
2022-08-25T00:24:16.763Z,101585.38
2022-08-25T00:26:49.111Z,101602.91
2022-08-25T00:29:15.960Z,101596.09
2022-08-25T00:31:44.623Z,101575.63
2022-08-25T00:34:18.117Z,101597.81
2022-08-25T00:36:45.524Z,101595.81
2022-08-25T00:39:12.058Z,101594.16
2022-08-25T00:41:41.789Z,101565.25
2022-08-25T00:44:10.952Z,101577.84
2022-08-25T00:46:44.769Z,101594.69
2022-08-25T00:49:25.379Z,101542.88
2022-08-25T00:52:03.006Z,101583.88
2022-08-25T00:54:41.013Z,101581.88
2022-08-25T00:57:10.941Z,101539.06
2022-08-25T00:59:37.660Z,101552.13
2022-08-25T01:02:05.917Z,101599.28
2022-08-25T01:04:34.909Z,101566.78
2022-08-25T01:07:02.411Z,101594.31
2022-08-25T01:09:32.593Z,101591.34
2022-08-25T01:12:00.335Z,101588.44
2022-08-25T01:14:28.964Z,101577.88
2022-08-25T01:16:55.488Z,101568.16
2022-08-25T01:19:22.047Z,101571.75
2022-08-25T01:21:51.719Z,101569.75
2022-08-25T01:24:47.018Z,101598.53
2022-08-25T01:27:13.714Z,101602.59
2022-08-25T01:29:40.297Z,101607.25
2022-08-25T01:32:12.094Z,101592.44
2022-08-25T01:34:41.543Z,101596.59
2022-08-25T01:37:09.609Z,101608.72
2022-08-25T01:39:40.942Z,101604.44
2022-08-25T01:42:09.077Z,101597.56
2022-08-25T01:44:38.580Z,101610.03
2022-08-25T01:47:06.345Z,101596.13
2022-08-25T01:49:33.250Z,101563.16
2022-08-25T01:52:07.416Z,101567.31
2022-08-25T01:54:34.076Z,101569.44
2022-08-25T01:57:00.596Z,101583.31
2022-08-25T01:59:27.638Z,101572.03
2022-08-25T02:01:59.552Z,101557.75
2022-08-25T02:04:29.523Z,101575.88
2022-08-25T02:06:56.183Z,101584.44
2022-08-25T02:09:23.031Z,101562.75
2022-08-25T02:11:49.482Z,101572.28
2022-08-25T02:14:20.711Z,101571.88
2022-08-25T02:16:50.992Z,101577.16
2022-08-25T02:19:18.900Z,101570.16
2022-08-25T02:21:45.967Z,101537.59
2022-08-25T02:24:13.781Z,101533.78
2022-08-25T02:26:41.487Z,101549.06
2022-08-25T02:29:11.207Z,101565.03
2022-08-25T02:31:39.231Z,101536.59
2022-08-25T02:34:07.666Z,101565.72
2022-08-25T02:36:34.330Z,101552.22
2022-08-25T02:39:01.136Z,101539.31
2022-08-25T02:41:31.134Z,101557.44
2022-08-25T02:43:59.270Z,101572.28
2022-08-25T02:46:25.867Z,101556.19
2022-08-25T02:48:53.406Z,101554.78
2022-08-25T02:51:28.625Z,101533.19
2022-08-25T02:53:55.103Z,101550.72
2022-08-25T02:56:22.102Z,101556.88
2022-08-25T02:58:48.693Z,101534.19
2022-08-25T03:01:16.661Z,101532.88
2022-08-25T03:03:45.690Z,101537.56
2022-08-25T03:06:14.737Z,101555.91
2022-08-25T03:08:42.200Z,101534.75
2022-08-25T03:11:09.427Z,101536.19
2022-08-25T03:13:36.374Z,101551.88
2022-08-25T03:16:04.574Z,101534.47
2022-08-25T03:18:31.565Z,101494.38
2022-08-25T03:20:59.490Z,101514.78
2022-08-25T03:23:26.802Z,101511.75
2022-08-25T03:26:15.068Z,101528.47
2022-08-25T03:28:41.810Z,101533.75
2022-08-25T03:31:08.912Z,101541.19
2022-08-25T03:33:36.996Z,101515.47
2022-08-25T03:36:05.543Z,101476.94
2022-08-25T03:38:32.390Z,101539.31
2022-08-25T03:40:58.835Z,101527.03
2022-08-25T03:43:25.431Z,101517.06
2022-08-25T03:46:22.311Z,101465.25
2022-08-25T03:49:26.662Z,101520.75
2022-08-25T03:52:22.735Z,101495.09
2022-08-25T03:54:57.573Z,101478.81
2022-08-25T03:57:29.166Z,101480.25
2022-08-25T04:00:12.159Z,101480.53
2022-08-25T04:02:47.666Z,101492.22
2022-08-25T04:05:36.931Z,101527.03
2022-08-25T04:11:21.340Z,101529.19
2022-08-25T04:14:19.698Z,101485.38
2022-08-25T04:17:01.911Z,101493.25
2022-08-25T04:19:52.280Z,101537.59
2022-08-25T04:22:29.924Z,101531.06
2022-08-25T04:31:24.440Z,101519.91
2022-08-25T04:37:28.020Z,101539.59
2022-08-25T04:40:00.571Z,101505.50
2022-08-25T05:45:48.828Z,101569.47
2022-08-25T05:48:15.766Z,101563.84
2022-08-25T05:51:10.925Z,101524.47
2022-08-25T06:05:20.470Z,101582.16
2022-08-25T06:32:36.708Z,101574.38
2022-08-25T07:02:14.061Z,101568.97
2022-08-25T07:04:48.310Z,101572.28
2022-08-25T07:07:15.078Z,101565.97
2022-08-25T07:09:42.100Z,101539.09
2022-08-25T07:12:11.906Z,101550.53
2022-08-25T07:14:42.493Z,101553.69
2022-08-25T07:17:23.674Z,101564.50
2022-08-25T07:19:51.668Z,101546.38
2022-08-25T07:22:25.829Z,101566.00
2022-08-25T07:24:52.551Z,101582.47
2022-08-25T07:27:26.897Z,101570.31
2022-08-25T07:29:54.292Z,101566.75
2022-08-25T07:32:36.226Z,101531.19
2022-08-25T07:35:43.760Z,101570.28
2022-08-25T07:38:09.177Z,101567.16
2022-08-25T07:40:42.926Z,101524.88
2022-08-25T07:43:10.569Z,101513.16
2022-08-25T07:48:56.707Z,101526.75
2022-08-25T07:51:38.893Z,101549.44
2022-08-25T07:55:11.039Z,101560.88
2022-08-25T07:58:12.358Z,101506.06
2022-08-25T08:05:11.285Z,101508.47
2022-08-25T08:11:05.498Z,101547.75
2022-08-25T08:14:44.981Z,101503.09
2022-08-25T08:17:42.391Z,101499.09
2022-08-25T08:21:25.097Z,101511.88
2022-08-25T08:24:10.740Z,101525.66
2022-08-25T08:26:59.364Z,101500.47
2022-08-25T08:29:48.302Z,101503.25
2022-08-25T08:39:17.634Z,101543.06
2022-08-25T08:46:11.790Z,101482.09
2022-08-25T08:49:26.749Z,101530.63
2022-08-25T08:52:24.399Z,101502.72
2022-08-25T08:55:21.399Z,101522.88
2022-08-25T08:57:52.037Z,101509.72
2022-08-25T09:00:25.817Z,101477.06
2022-08-25T09:03:31.279Z,101500.59
2022-08-25T09:06:06.917Z,101492.41
2022-08-25T09:08:33.904Z,101495.50
2022-08-25T09:11:16.522Z,101500.91
2022-08-25T09:15:00.300Z,101503.97
2022-08-25T09:17:44.588Z,101494.22
2022-08-25T09:20:35.886Z,101475.63
2022-08-25T09:23:36.688Z,101516.81
2022-08-25T09:26:36.497Z,101479.91
2022-08-25T09:29:19.432Z,101494.59
2022-08-25T09:35:57.782Z,101505.19
2022-08-25T09:38:28.111Z,101451.97
2022-08-25T09:41:41.468Z,101511.16
2022-08-25T09:44:34.131Z,101452.66
2022-08-25T09:47:23.512Z,101478.56
2022-08-25T09:50:28.881Z,101475.00
2022-08-25T09:53:04.335Z,101504.53
2022-08-25T09:56:12.907Z,101444.81
2022-08-25T09:58:39.528Z,101454.19
2022-08-25T10:01:18.844Z,101459.66
2022-08-25T10:04:00.111Z,101483.19
2022-08-25T10:06:32.784Z,101447.69
2022-08-25T10:09:07.839Z,101490.16
2022-08-25T10:12:16.065Z,101439.97
2022-08-25T10:14:44.411Z,101472.41
2022-08-25T10:17:27.730Z,101442.69
2022-08-25T10:20:17.465Z,101443.94
2022-08-25T10:22:45.646Z,101454.31
2022-08-25T10:25:21.976Z,101466.91
2022-08-25T10:27:58.910Z,101465.25
2022-08-25T10:30:36.221Z,101466.84
2022-08-25T10:33:12.714Z,101479.16
2022-08-25T10:35:49.680Z,101470.78
2022-08-25T10:38:36.627Z,101474.75
2022-08-25T10:42:13.093Z,101469.47
2022-08-25T10:45:16.603Z,101454.63
2022-08-25T10:48:13.533Z,101442.03
2022-08-25T10:50:49.157Z,101428.09
2022-08-25T10:53:19.254Z,101444.50
2022-08-25T10:55:52.826Z,101434.66
2022-08-25T10:58:32.277Z,101446.44
2022-08-25T11:01:15.382Z,101398.00
2022-08-25T11:03:51.171Z,101392.34
2022-08-25T11:07:16.529Z,101438.06
2022-08-25T11:16:58.051Z,101395.22
2022-08-25T11:19:49.304Z,101395.88
2022-08-25T11:22:29.081Z,101409.72
2022-08-25T11:24:59.999Z,101373.97
2022-08-25T11:27:53.286Z,101387.78
2022-08-25T11:30:28.580Z,101373.97
2022-08-25T11:32:56.497Z,101375.84
2022-08-25T11:35:37.416Z,101397.41
2022-08-25T11:38:16.708Z,101404.97
2022-08-25T11:41:17.610Z,101373.22
2022-08-25T11:43:53.445Z,101397.69
2022-08-25T11:46:32.104Z,101353.03
2022-08-25T11:49:44.456Z,101402.50
2022-08-25T11:52:34.747Z,101404.25
2022-08-25T12:02:52.482Z,101377.69
2022-08-25T12:05:19.342Z,101367.00
2022-08-25T12:08:22.696Z,101367.09
2022-08-25T12:11:07.261Z,101359.19
2022-08-25T12:14:16.746Z,101335.19
2022-08-25T12:17:03.244Z,101360.78
2022-08-25T12:19:35.879Z,101354.66
2022-08-25T12:22:03.672Z,101370.78
2022-08-25T12:24:47.629Z,101354.84
2022-08-25T12:27:33.858Z,101365.22
2022-08-25T12:30:15.586Z,101326.63
2022-08-25T12:33:11.967Z,101348.22
2022-08-25T12:35:57.955Z,101309.19
2022-08-25T12:38:49.604Z,101303.94
2022-08-25T12:41:24.191Z,101295.31
2022-08-25T12:43:54.457Z,101324.66
2022-08-25T12:46:21.067Z,101340.69
2022-08-25T12:48:57.953Z,101332.19
2022-08-25T12:51:28.803Z,101315.56
2022-08-25T12:54:22.551Z,101328.69
2022-08-25T13:01:00.932Z,101304.94
2022-08-25T13:03:48.933Z,101325.88
2022-08-25T13:06:26.778Z,101311.69
2022-08-25T13:09:42.046Z,101319.50
2022-08-25T13:12:25.567Z,101287.34
2022-08-25T13:15:28.955Z,101269.66
2022-08-25T13:18:12.475Z,101292.38
2022-08-25T13:23:36.431Z,101277.81
2022-08-25T13:33:33.381Z,101274.81
2022-08-25T13:36:21.005Z,101281.66
2022-08-25T13:38:51.227Z,101274.25
2022-08-25T13:41:37.289Z,101272.47
2022-08-25T13:44:07.297Z,101262.53
2022-08-25T13:46:40.054Z,101266.16
2022-08-25T13:49:09.326Z,101280.13
2022-08-25T13:51:41.390Z,101240.97
2022-08-25T13:54:36.021Z,101235.72
2022-08-25T13:57:24.992Z,101273.78
2022-08-25T14:00:00.275Z,101253.75
2022-08-25T14:02:42.281Z,101279.09
2022-08-25T14:05:32.386Z,101267.06
2022-08-25T14:08:25.270Z,101242.56
2022-08-25T14:11:08.078Z,101265.28
2022-08-25T14:13:44.746Z,101243.84
2022-08-25T14:16:14.299Z,101266.53
2022-08-25T14:18:49.242Z,101231.41
2022-08-25T14:21:19.624Z,101249.22
2022-08-25T14:23:47.231Z,101239.00
2022-08-25T14:26:18.634Z,101235.84
2022-08-25T14:28:46.102Z,101203.41
2022-08-25T14:31:16.639Z,101238.06
2022-08-25T14:33:54.973Z,101205.31
2022-08-25T14:36:21.688Z,101208.25
2022-08-25T14:38:54.949Z,101234.78
2022-08-25T14:41:23.840Z,101197.44
2022-08-25T14:43:50.559Z,101224.31
2022-08-25T14:46:33.502Z,101183.28
2022-08-25T14:49:05.972Z,101185.91
2022-08-25T14:51:33.987Z,101228.22
2022-08-25T14:54:17.748Z,101214.09
2022-08-25T14:56:49.800Z,101177.38
2022-08-25T17:34:58.068Z,101064.47
2022-08-25T17:37:30.897Z,101099.38
2022-08-25T21:06:50.681Z,101157.19
2022-08-25T21:09:26.166Z,101094.16
2022-08-25T21:12:09.503Z,101098.94
2022-08-25T21:14:48.354Z,101126.66
2022-08-25T21:17:21.210Z,101114.94
2022-08-25T21:20:14.518Z,101114.59
2022-08-25T21:27:19.232Z,101109.16
2022-08-25T21:29:31.118Z,101100.84
2022-08-25T21:32:53.317Z,101128.91
2022-08-25T21:35:22.437Z,101141.84
2022-08-25T21:37:53.587Z,101129.88
2022-08-25T21:40:28.475Z,101099.53
2022-08-25T21:42:56.469Z,101140.81
2022-08-25T21:45:23.254Z,101126.84
2022-08-25T21:47:50.058Z,101123.94
2022-08-25T21:50:19.191Z,101143.00
2022-08-25T21:52:45.949Z,101120.06
2022-08-25T21:55:16.094Z,101103.34
2022-08-25T21:57:47.525Z,101096.38
2022-08-25T22:00:15.124Z,101091.94
2022-08-25T22:02:45.930Z,101120.56
2022-08-25T22:05:12.826Z,101099.81
2022-08-25T22:07:42.291Z,101099.44
2022-08-25T22:10:15.910Z,101081.06
2022-08-25T22:12:45.092Z,101120.91
2022-08-25T22:15:12.478Z,101106.59
2022-08-25T22:17:40.738Z,101081.25
2022-08-25T22:20:08.795Z,101069.34
2022-08-25T22:22:36.480Z,101085.16
2022-08-25T22:25:03.987Z,101088.03
2022-08-25T22:27:33.009Z,101072.22
2022-08-25T22:30:02.884Z,101108.63
2022-08-25T22:32:30.511Z,101090.25
2022-08-25T22:34:57.178Z,101072.56
2022-08-25T22:37:23.968Z,101103.88
2022-08-25T22:39:50.830Z,101086.69
2022-08-25T22:42:20.415Z,101104.88
2022-08-25T22:44:53.931Z,101073.09
2022-08-25T22:47:20.532Z,101064.75
2022-08-25T22:49:47.217Z,101103.34
2022-08-25T22:52:14.953Z,101062.03
2022-08-25T22:54:42.035Z,101088.91
2022-08-25T22:57:08.660Z,101065.25
2022-08-25T22:59:35.106Z,101094.50
2022-08-25T23:02:02.037Z,101043.16
2022-08-25T23:04:31.321Z,101048.59
2022-08-25T23:06:59.001Z,101052.13
2022-08-25T23:09:25.694Z,101061.34
2022-08-25T23:11:52.586Z,101080.06
2022-08-25T23:14:20.183Z,101080.22
2022-08-25T23:16:48.460Z,101091.44
2022-08-25T23:19:16.942Z,101076.66
2022-08-25T23:22:02.585Z,101057.09
2022-08-25T23:24:30.867Z,101070.84
2022-08-25T23:26:59.312Z,101064.22
2022-08-25T23:29:26.342Z,101052.00
2022-08-25T23:31:53.665Z,101025.78
2022-08-25T23:34:22.751Z,101073.09
2022-08-25T23:36:50.968Z,101056.56
2022-08-25T23:39:18.134Z,101072.41
2022-08-25T23:41:44.842Z,101045.53
2022-08-25T23:44:17.006Z,101056.56
2022-08-25T23:46:44.928Z,101052.84
2022-08-25T23:49:12.391Z,101029.53
2022-08-25T23:51:40.175Z,101057.94
2022-08-25T23:54:10.864Z,101008.78
2022-08-25T23:56:44.434Z,101023.25
2022-08-25T23:59:11.820Z,101048.75
